Time;durP1;ratioP1;P1;durP2;ratioP2;P2;SDS_P1;SDS_P2;PMS_P1;PMS_P2;Temp;Humidity;BMP_temperature;BMP_pressure;BME280_temperature;BME280_humidity;BME280_pressure;Samples;Min_cycle;Max_cycle;Signal;HPM_P1;HPM_P2
2022/11/18 00:02:15;;;;;;;8.70;3.40;;;;;;;11.61;98.27;98760.47;5017575;28;20223;-62
2022/11/18 00:04:43;;;;;;;11.37;3.90;;;;;;;11.68;98.05;98756.03;5012403;28;20223;-61
2022/11/18 00:07:11;;;;;;;7.60;3.17;;;;;;;11.67;97.20;98749.06;5013379;28;20292;-62
2022/11/18 00:09:40;;;;;;;7.83;2.83;;;;;;;11.68;97.02;98744.59;5016142;28;20330;-62
2022/11/18 00:14:54;;;;;;;6.97;3.43;;;;;;;11.62;97.59;98740.88;5015069;28;20315;-63
2022/11/18 00:17:22;;;;;;;8.07;3.90;;;;;;;11.62;97.02;98751.47;5016803;28;20626;-63
2022/11/18 00:19:49;;;;;;;7.80;3.40;;;;;;;11.58;97.63;98754.75;5007922;28;20212;-62
2022/11/18 00:22:17;;;;;;;11.93;3.80;;;;;;;11.57;97.71;98753.91;5013093;28;20206;-61
2022/11/18 00:24:46;;;;;;;6.30;3.00;;;;;;;11.57;97.97;98753.09;5008402;28;20622;-63
2022/11/18 00:27:14;;;;;;;7.80;2.80;;;;;;;11.59;97.62;98745.75;5009300;28;20293;-63
2022/11/18 00:29:42;;;;;;;7.70;2.60;;;;;;;11.54;97.23;98746.34;5014526;28;20208;-63
2022/11/18 00:32:09;;;;;;;7.13;2.70;;;;;;;11.52;97.96;98740.41;5011003;28;20215;-61
2022/11/18 00:34:37;;;;;;;5.90;2.63;;;;;;;11.54;97.70;98754.28;5012690;28;20210;-61
2022/11/18 00:37:05;;;;;;;6.90;3.10;;;;;;;11.52;97.66;98756.31;5007105;28;20688;-61
2022/11/18 00:39:33;;;;;;;6.97;2.50;;;;;;;11.56;96.74;98754.94;5001916;28;20304;-62
2022/11/18 00:44:47;;;;;;;6.07;2.70;;;;;;;11.61;95.99;98755.16;5005918;28;20230;-61
2022/11/18 00:47:14;;;;;;;7.47;3.03;;;;;;;11.61;95.77;98749.84;5006620;28;20220;-61
2022/11/18 00:49:42;;;;;;;6.07;2.50;;;;;;;11.62;95.64;98745.34;5006268;28;20578;-61
2022/11/18 00:52:10;;;;;;;5.97;2.67;;;;;;;11.61;95.67;98747.19;5010099;28;20211;-61
2022/11/18 00:54:38;;;;;;;8.00;3.10;;;;;;;11.58;95.64;98741.47;5010299;28;20608;-61
2022/11/18 00:57:07;;;;;;;9.17;2.93;;;;;;;11.53;96.30;98738.56;5015727;28;20218;-61
2022/11/18 00:59:34;;;;;;;9.20;3.10;;;;;;;11.52;96.82;98734.28;5014130;28;20221;-62
2022/11/18 01:02:02;;;;;;;8.63;3.13;;;;;;;11.51;96.42;98735.31;5009944;28;20305;-62
2022/11/18 01:04:30;;;;;;;5.90;2.60;;;;;;;11.49;97.00;98743.47;5010828;28;20752;-61
2022/11/18 01:06:58;;;;;;;8.17;2.93;;;;;;;11.49;96.64;98751.41;5012444;28;20209;-62
2022/11/18 01:09:26;;;;;;;5.10;3.17;;;;;;;11.46;96.60;98751.81;5009767;28;20231;-61
2022/11/18 01:14:40;;;;;;;6.93;3.23;;;;;;;11.47;96.88;98760.59;5014869;28;20573;-63
2022/11/18 01:17:07;;;;;;;7.90;3.13;;;;;;;11.44;96.81;98769.75;5012189;28;20222;-64
2022/11/18 01:19:36;;;;;;;7.70;3.33;;;;;;;11.41;97.66;98770.16;5008873;28;20241;-63
2022/11/18 01:22:03;;;;;;;7.40;3.20;;;;;;;11.40;98.16;98771.16;5010026;28;20807;-62
2022/11/18 01:24:32;;;;;;;8.10;2.87;;;;;;;11.44;97.69;98768.94;5006487;28;20219;-62
2022/11/18 01:27:01;;;;;;;8.37;3.23;;;;;;;11.45;97.19;98771.38;5008563;28;20215;-62
2022/11/18 01:29:29;;;;;;;5.17;2.90;;;;;;;11.45;96.40;98779.34;5013151;28;20537;-62
2022/11/18 01:31:58;;;;;;;7.13;3.10;;;;;;;11.39;96.95;98788.09;5013736;28;20223;-63
2022/11/18 01:34:46;;;;;;;6.90;3.17;;;;;;;11.38;97.31;98786.47;5014917;28;20236;-63
2022/11/18 01:37:14;;;;;;;5.67;3.13;;;;;;;11.43;97.02;98786.72;5015912;28;20584;-60
2022/11/18 01:39:41;;;;;;;5.77;3.53;;;;;;;11.44;97.03;98792.81;5012426;28;20709;-63
2022/11/18 01:42:14;;;;;;;5.40;2.87;;;;;;;11.45;96.66;98799.75;5009371;28;20207;-63
2022/11/18 01:44:59;;;;;;;5.33;2.23;;;;;;;11.44;96.68;98801.59;5015268;28;20661;-63
2022/11/18 01:47:33;;;;;;;4.80;2.93;;;;;;;11.41;96.77;98790.56;5015571;28;20572;-61
2022/11/18 01:50:01;;;;;;;6.70;3.10;;;;;;;11.49;96.16;98785.94;5014414;28;20228;-62
2022/11/18 01:52:30;;;;;;;6.90;3.00;;;;;;;11.46;95.39;98791.63;5013251;28;20219;-61
2022/11/18 01:55:03;;;;;;;6.27;3.27;;;;;;;11.35;95.64;98797.44;5009568;28;20228;-62
2022/11/18 01:57:32;;;;;;;6.97;3.60;;;;;;;11.28;96.19;98789.44;5014041;28;20213;-62
2022/11/18 02:00:03;;;;;;;10.13;3.50;;;;;;;11.28;96.67;98796.59;5012401;28;21599;-62
2022/11/18 02:02:36;;;;;;;7.90;3.80;;;;;;;11.27;96.71;98798.41;5014624;28;20668;-62
2022/11/18 02:05:06;;;;;;;10.20;3.80;;;;;;;11.28;96.92;98799.25;5012154;28;20238;-62
2022/11/18 02:07:37;;;;;;;7.10;4.60;;;;;;;11.25;96.60;98792.50;5022101;28;20722;-61
2022/11/18 02:10:06;;;;;;;7.27;4.03;;;;;;;11.29;96.88;98803.53;5013947;28;20240;-63
2022/11/18 02:12:35;;;;;;;10.57;3.90;;;;;;;11.32;97.01;98798.69;5012738;28;20238;-63
2022/11/18 02:15:03;;;;;;;8.50;4.13;;;;;;;11.42;96.41;98808.94;5011886;28;20208;-61
2022/11/18 02:17:44;;;;;;;8.70;4.60;;;;;;;11.41;95.92;98809.97;5017023;28;20207;-63
2022/11/18 02:20:26;;;;;;;6.57;3.87;;;;;;;11.36;96.04;98809.69;5014503;28;20211;-61
2022/11/18 02:23:40;;;;;;;8.07;3.90;;;;;;;11.37;96.04;98810.53;5011945;28;20208;-63
2022/11/18 02:26:38;;;;;;;7.97;4.07;;;;;;;11.45;95.94;98813.84;5010914;28;20227;-63
2022/11/18 02:29:14;;;;;;;7.90;4.20;;;;;;;11.47;95.28;98817.16;5009445;28;20244;-60
2022/11/18 02:31:51;;;;;;;7.13;4.00;;;;;;;11.61;95.00;98818.03;5013633;28;20775;-61
2022/11/18 02:34:32;;;;;;;6.90;3.90;;;;;;;11.62;93.51;98809.88;5011902;28;20926;-61
2022/11/18 02:37:08;;;;;;;7.43;4.60;;;;;;;11.69;93.99;98817.91;5010771;28;20301;-61
2022/11/18 02:39:43;;;;;;;8.00;4.40;;;;;;;11.64;94.17;98807.03;5011816;28;20203;-62
2022/11/18 02:42:15;;;;;;;7.93;4.27;;;;;;;11.67;94.79;98812.78;5010936;28;20660;-63
2022/11/18 02:44:49;;;;;;;8.47;4.20;;;;;;;11.77;93.90;98816.97;5011865;28;20214;-61
2022/11/18 02:47:19;;;;;;;7.57;4.20;;;;;;;11.82;93.57;98819.84;5010989;28;20227;-63
2022/11/18 02:49:53;;;;;;;8.83;4.33;;;;;;;11.81;92.43;98819.03;5012917;28;20216;-62
2022/11/18 02:52:24;;;;;;;7.37;4.10;;;;;;;11.89;92.33;98824.16;5011400;28;20229;-61
2022/11/18 02:54:53;;;;;;;9.93;5.07;;;;;;;11.85;92.19;98819.47;5011876;28;20652;-62
2022/11/18 02:57:22;;;;;;;10.67;4.87;;;;;;;11.90;92.24;98822.34;5009351;28;20577;-61
2022/11/18 02:59:51;;;;;;;7.10;4.20;;;;;;;11.84;92.00;98818.63;5010687;28;20549;-60
2022/11/18 03:02:20;;;;;;;7.93;4.33;;;;;;;11.74;92.02;98817.31;5015081;28;20298;-61
2022/11/18 03:04:51;;;;;;;12.07;5.03;;;;;;;11.64;92.89;98823.78;5013857;28;20219;-61
2022/11/18 03:07:25;;;;;;;9.27;4.60;;;;;;;11.62;93.21;98825.81;5012033;28;20226;-62
2022/11/18 03:09:55;;;;;;;8.97;5.10;;;;;;;11.63;93.59;98831.94;5008728;28;20284;-63
2022/11/18 03:12:33;;;;;;;9.17;4.63;;;;;;;11.66;93.78;98840.34;5011400;28;20240;-62
2022/11/18 03:15:10;;;;;;;10.37;5.10;;;;;;;11.72;93.85;98835.25;5013051;28;21152;-60
2022/11/18 03:17:47;;;;;;;8.97;5.33;;;;;;;11.74;93.55;98841.22;5012573;28;20214;-63
2022/11/18 03:20:21;;;;;;;8.80;5.57;;;;;;;11.72;93.58;98845.88;5010146;28;20895;-62
2022/11/18 03:22:55;;;;;;;8.77;4.57;;;;;;;11.73;93.94;98847.53;5014622;28;20203;-62
2022/11/18 03:25:29;;;;;;;7.63;4.90;;;;;;;11.77;93.44;98849.66;5008427;28;20230;-63
2022/11/18 03:28:06;;;;;;;7.60;4.77;;;;;;;11.85;93.35;98851.31;5016866;28;20230;-63
2022/11/18 03:30:40;;;;;;;7.97;4.70;;;;;;;11.89;92.54;98858.69;5012822;28;20223;-62
2022/11/18 03:33:12;;;;;;;9.80;5.20;;;;;;;11.89;91.76;98853.38;5017897;28;20660;-62
2022/11/18 03:35:44;;;;;;;9.47;5.73;;;;;;;11.83;92.25;98864.78;5013610;28;20297;-63
2022/11/18 03:38:15;;;;;;;9.13;5.50;;;;;;;11.86;92.61;98868.91;5020007;28;20208;-63
2022/11/18 03:40:49;;;;;;;7.80;5.20;;;;;;;11.94;92.23;98874.06;5011104;28;20811;-62
2022/11/18 03:43:20;;;;;;;10.30;5.50;;;;;;;12.03;91.47;98883.50;5011794;28;21072;-64
2022/11/18 03:45:53;;;;;;;10.53;5.00;;;;;;;12.06;91.26;98869.81;5012852;28;20223;-61
2022/11/18 03:48:26;;;;;;;10.83;6.10;;;;;;;12.07;91.22;98872.28;5009261;28;20211;-62
2022/11/18 03:50:59;;;;;;;11.50;5.97;;;;;;;12.10;91.07;98887.03;5006586;28;22035;-63
2022/11/18 03:53:31;;;;;;;8.47;5.43;;;;;;;12.08;90.76;98878.41;5012624;28;20303;-62
2022/11/18 03:56:06;;;;;;;10.97;5.83;;;;;;;12.04;90.31;98888.63;5009676;28;20235;-63
2022/11/18 03:58:46;;;;;;;8.50;5.80;;;;;;;12.01;90.67;98888.19;5014604;28;20208;-63
2022/11/18 04:01:18;;;;;;;11.10;6.13;;;;;;;12.05;90.64;98884.13;5014528;28;20215;-62
2022/11/18 04:03:46;;;;;;;9.33;5.77;;;;;;;12.04;90.53;98885.97;5013964;28;20216;-62
2022/11/18 04:06:21;;;;;;;11.73;6.67;;;;;;;11.93;90.87;98891.00;5010353;28;20700;-61
2022/11/18 04:08:56;;;;;;;9.10;6.53;;;;;;;11.85;91.64;98896.47;5008961;28;20211;-64
2022/11/18 04:14:19;;;;;;;10.80;6.57;;;;;;;11.93;92.08;98898.97;5018260;28;20704;-63
2022/11/18 04:16:51;;;;;;;10.07;6.43;;;;;;;11.89;92.08;98905.69;5011012;28;20235;-63
2022/11/18 04:19:20;;;;;;;9.90;6.30;;;;;;;11.89;92.63;98901.19;5007552;28;20220;-62
2022/11/18 04:21:48;;;;;;;10.53;6.00;;;;;;;11.98;92.32;98907.16;5006524;28;20239;-62
2022/11/18 04:24:16;;;;;;;12.00;6.63;;;;;;;12.02;91.30;98900.47;5010922;28;20240;-63
2022/11/18 04:26:44;;;;;;;11.33;6.70;;;;;;;11.95;91.71;98908.41;5009070;28;20616;-62
2022/11/18 04:29:11;;;;;;;14.67;6.57;;;;;;;11.85;92.17;98909.75;5011978;28;20211;-61
2022/11/18 04:31:39;;;;;;;9.90;5.90;;;;;;;11.78;93.08;98914.19;5013512;28;20763;-63
2022/11/18 04:34:08;;;;;;;9.63;6.17;;;;;;;11.77;93.66;98917.88;5008861;28;20208;-62
2022/11/18 04:36:36;;;;;;;11.37;6.33;;;;;;;11.80;93.64;98922.78;5010108;28;20224;-62
2022/11/18 04:39:04;;;;;;;11.47;6.83;;;;;;;11.85;93.06;98923.03;5011528;28;20298;-63
2022/11/18 04:44:17;;;;;;;9.60;6.57;;;;;;;12.04;91.69;98919.69;5013861;28;20235;-61
2022/11/18 04:46:45;;;;;;;11.23;7.23;;;;;;;12.00;91.18;98918.44;5009502;28;20584;-63
2022/11/18 04:49:16;;;;;;;11.83;7.33;;;;;;;12.00;91.45;98919.25;5006217;28;20230;-63
2022/11/18 04:51:45;;;;;;;13.53;8.57;;;;;;;11.94;91.01;98925.34;5007189;28;20220;-63
2022/11/18 04:54:13;;;;;;;11.77;6.70;;;;;;;11.90;91.55;98928.56;5006647;28;20884;-63
2022/11/18 04:56:41;;;;;;;14.47;7.07;;;;;;;11.92;91.79;98939.81;5012681;28;20593;-62
2022/11/18 04:59:18;;;;;;;12.73;7.17;;;;;;;11.96;91.84;98930.47;5010647;28;20343;-63
2022/11/18 05:01:47;;;;;;;12.13;7.70;;;;;;;11.88;91.88;98933.25;5012096;28;20563;-62
2022/11/18 05:04:20;;;;;;;10.27;6.57;;;;;;;11.92;92.17;98934.50;5014130;28;20215;-63
2022/11/18 05:06:48;;;;;;;12.33;6.33;;;;;;;11.98;91.05;98949.66;5016694;28;20217;-62
2022/11/18 05:09:16;;;;;;;8.10;4.23;;;;;;;12.00;90.40;98939.69;5011510;28;20618;-62
2022/11/18 05:14:30;;;;;;;4.50;2.27;;;;;;;12.05;89.15;98961.97;5011366;28;20544;-62
2022/11/18 05:17:00;;;;;;;6.50;1.80;;;;;;;12.08;88.41;98952.81;5011638;28;20204;-62
2022/11/18 05:19:29;;;;;;;4.33;1.90;;;;;;;12.11;88.10;98946.28;5012505;28;20264;-62
2022/11/18 05:21:57;;;;;;;4.77;1.57;;;;;;;12.12;88.16;98954.06;5013797;28;20745;-63
2022/11/18 05:24:25;;;;;;;3.00;1.57;;;;;;;12.10;88.33;98949.97;5013541;28;20211;-62
2022/11/18 05:26:54;;;;;;;5.60;1.87;;;;;;;12.13;88.00;98954.91;5017475;28;20281;-62
2022/11/18 05:29:22;;;;;;;4.27;1.67;;;;;;;12.11;88.03;98957.75;5014579;28;20209;-64
2022/11/18 05:31:50;;;;;;;2.77;1.20;;;;;;;12.09;87.27;98964.25;5010666;28;20253;-62
2022/11/18 05:34:18;;;;;;;2.17;1.10;;;;;;;12.05;87.33;98969.13;5015567;28;20213;-61
2022/11/18 05:36:47;;;;;;;2.93;1.00;;;;;;;12.06;87.31;98974.25;5009758;28;20225;-61
2022/11/18 05:39:15;;;;;;;2.93;0.80;;;;;;;12.02;87.70;98969.53;5017620;28;20220;-61
2022/11/18 05:44:29;;;;;;;2.53;0.70;;;;;;;12.04;87.29;98978.13;5010889;28;20348;-62
2022/11/18 05:46:57;;;;;;;3.50;0.73;;;;;;;12.02;86.95;98978.31;5010695;28;20214;-62
2022/11/18 05:49:25;;;;;;;2.20;0.80;;;;;;;12.01;86.57;98981.16;5017638;28;20199;-61
2022/11/18 05:51:54;;;;;;;5.10;0.70;;;;;;;12.04;86.08;98994.06;5015117;28;20302;-62
2022/11/18 05:54:22;;;;;;;2.73;0.73;;;;;;;12.02;86.02;98985.47;5011777;28;20246;-62
2022/11/18 05:56:50;;;;;;;2.30;0.60;;;;;;;12.04;85.58;98994.06;5011886;28;20216;-61
2022/11/18 05:59:18;;;;;;;2.10;0.60;;;;;;;12.02;85.25;98993.44;5012511;28;20299;-62
2022/11/18 06:01:49;;;;;;;2.03;0.70;;;;;;;12.00;84.70;98996.28;5013492;28;20234;-62
2022/11/18 06:04:22;;;;;;;3.07;0.73;;;;;;;11.91;84.56;98993.97;5011173;28;20292;-63
2022/11/18 06:06:53;;;;;;;2.90;0.50;;;;;;;11.85;84.50;99002.69;5010332;28;20311;-62
2022/11/18 06:09:26;;;;;;;2.43;0.60;;;;;;;11.80;84.54;99007.75;5009648;28;20408;-64
2022/11/18 06:11:58;;;;;;;2.17;0.70;;;;;;;11.81;85.41;99004.09;5014182;28;21275;-62
2022/11/18 06:14:31;;;;;;;5.27;0.80;;;;;;;11.76;85.42;99017.13;5013212;28;20208;-62
2022/11/18 06:17:04;;;;;;;4.77;1.10;;;;;;;11.68;86.17;99021.53;5010495;28;20208;-62
2022/11/18 06:19:33;;;;;;;4.40;1.20;;;;;;;11.63;86.18;99034.53;5012922;28;20203;-61
2022/11/18 06:22:02;;;;;;;3.60;0.90;;;;;;;11.65;86.60;99034.34;5012258;28;20219;-62
2022/11/18 06:24:31;;;;;;;1.73;0.67;;;;;;;11.65;86.17;99042.31;5011678;28;20215;-62
2022/11/18 06:26:59;;;;;;;2.37;0.83;;;;;;;11.65;85.75;99045.78;5010923;28;20298;-61
2022/11/18 06:29:28;;;;;;;2.23;0.60;;;;;;;11.65;86.29;99045.78;5010616;28;20234;-61
2022/11/18 06:31:56;;;;;;;1.57;0.60;;;;;;;11.66;85.65;99047.44;5010596;28;20246;-62
2022/11/18 06:34:24;;;;;;;2.23;0.77;;;;;;;11.63;85.23;99050.47;5010120;28;20263;-62
2022/11/18 06:36:52;;;;;;;2.13;1.00;;;;;;;11.65;84.95;99055.59;5013029;28;20223;-62
2022/11/18 06:39:19;;;;;;;1.93;0.80;;;;;;;11.68;85.21;99061.34;5009707;28;20219;-62
2022/11/18 06:41:49;;;;;;;3.40;0.83;;;;;;;11.69;85.06;99062.19;5009856;28;20234;-62
2022/11/18 06:44:15;;;;;;;4.20;0.77;;;;;;;11.69;84.16;99070.16;5010052;28;20210;-62
2022/11/18 06:46:55;;;;;;;2.20;0.57;;;;;;;11.63;84.83;99066.41;5010933;28;20697;-61
2022/11/18 06:49:27;;;;;;;2.90;0.50;;;;;;;11.73;84.75;99070.56;5013624;28;20263;-61
2022/11/18 06:51:55;;;;;;;6.17;0.70;;;;;;;11.69;84.65;99070.97;5013924;28;20306;-60
2022/11/18 06:54:23;;;;;;;1.77;0.40;;;;;;;11.68;83.71;99081.78;5020382;28;20214;-61
2022/11/18 06:56:52;;;;;;;1.53;0.40;;;;;;;11.60;84.57;99088.03;5014417;28;20235;-61
2022/11/18 06:59:23;;;;;;;2.37;0.50;;;;;;;11.64;84.80;99085.81;5013047;28;20207;-60
2022/11/18 07:01:52;;;;;;;1.83;0.60;;;;;;;11.66;84.17;99091.75;5011860;28;20215;-58
2022/11/18 07:04:20;;;;;;;4.73;1.10;;;;;;;11.66;83.94;99094.41;5009008;28;20350;-60
2022/11/18 07:06:48;;;;;;;5.33;1.77;;;;;;;11.58;84.45;99100.66;5012921;28;20558;-60
2022/11/18 07:09:16;;;;;;;6.33;1.83;;;;;;;11.52;84.07;99101.38;5012425;28;20262;-62
2022/11/18 07:11:44;;;;;;;2.93;1.23;;;;;;;11.48;84.06;99105.44;5010576;28;20278;-60
2022/11/18 07:14:14;;;;;;;1.87;0.70;;;;;;;11.45;84.45;99113.78;5013392;28;20223;-60
2022/11/18 07:16:41;;;;;;;3.30;0.70;;;;;;;11.47;84.57;99119.72;5010008;28;20235;-61
2022/11/18 07:19:11;;;;;;;2.37;0.70;;;;;;;11.51;84.87;99126.31;5014451;28;20207;-61
2022/11/18 07:21:40;;;;;;;4.57;0.90;;;;;;;11.58;84.61;99132.53;5010392;28;20250;-61
2022/11/18 07:24:08;;;;;;;1.87;0.50;;;;;;;11.65;83.92;99136.06;5009843;28;20211;-60
2022/11/18 07:26:36;;;;;;;1.07;0.50;;;;;;;11.70;83.54;99136.31;5013650;28;20207;-60
2022/11/18 07:29:04;;;;;;;0.70;0.40;;;;;;;11.79;83.30;99145.03;5012223;28;20230;-60
2022/11/18 07:31:36;;;;;;;2.93;0.70;;;;;;;11.80;82.85;99151.16;5008177;28;20236;-60
2022/11/18 07:34:04;;;;;;;1.77;0.50;;;;;;;11.79;83.18;99150.31;5011130;28;20291;-60
2022/11/18 07:36:31;;;;;;;3.53;0.63;;;;;;;11.78;83.23;99153.19;5007023;28;20712;-60
2022/11/18 07:39:04;;;;;;;0.93;0.53;;;;;;;11.78;83.29;99153.19;5014201;28;20202;-61
2022/11/18 07:41:33;;;;;;;1.97;0.57;;;;;;;11.76;82.85;99156.03;5007467;28;20216;-60
2022/11/18 07:44:03;;;;;;;2.10;0.73;;;;;;;11.74;83.14;99162.50;5013850;28;20226;-60
2022/11/18 07:46:34;;;;;;;3.13;0.80;;;;;;;11.76;83.44;99166.66;5010875;28;20856;-61
2022/11/18 07:49:04;;;;;;;2.37;0.77;;;;;;;11.80;83.50;99170.56;5010783;28;20243;-61
2022/11/18 07:51:34;;;;;;;1.40;0.60;;;;;;;11.78;82.83;99177.94;5009331;28;20304;-62
2022/11/18 07:54:05;;;;;;;1.93;0.70;;;;;;;11.78;82.85;99195.69;5011837;28;20677;-61
2022/11/18 07:56:33;;;;;;;3.77;0.60;;;;;;;11.77;82.81;99183.41;5011524;28;20916;-61
2022/11/18 07:59:01;;;;;;;2.93;0.60;;;;;;;11.74;83.12;99194.38;5010310;28;20203;-61
2022/11/18 08:01:29;;;;;;;2.13;0.50;;;;;;;11.81;83.32;99190.81;5011098;28;20212;-61
2022/11/18 08:04:05;;;;;;;1.83;0.70;;;;;;;11.90;83.06;99195.00;5004856;28;20237;-61
2022/11/18 08:06:33;;;;;;;3.03;1.00;;;;;;;11.85;83.69;99194.75;5011997;28;20211;-60
2022/11/18 08:09:04;;;;;;;2.50;1.13;;;;;;;11.78;84.25;99206.31;5016960;28;20633;-60
2022/11/18 08:11:32;;;;;;;3.93;1.30;;;;;;;11.65;84.76;99210.41;5014435;28;20267;-61
2022/11/18 08:13:59;;;;;;;3.90;1.30;;;;;;;11.48;85.93;99211.63;5009379;28;21190;-61
2022/11/18 08:16:28;;;;;;;2.00;1.10;;;;;;;11.42;86.96;99220.31;5010563;28;20684;-61
2022/11/18 08:18:55;;;;;;;3.77;1.50;;;;;;;11.42;87.46;99222.97;5012075;28;20221;-61
2022/11/18 08:21:24;;;;;;;3.00;1.20;;;;;;;11.37;87.70;99224.50;5014656;28;20212;-62
2022/11/18 08:23:54;;;;;;;4.43;2.13;;;;;;;11.37;88.00;99220.03;5017365;28;20211;-61
2022/11/18 08:26:23;;;;;;;3.57;1.80;;;;;;;11.36;86.69;99222.88;5009620;28;20216;-61
2022/11/18 08:28:51;;;;;;;4.23;1.80;;;;;;;11.36;86.84;99230.84;5010826;28;22114;-61
2022/11/18 08:31:21;;;;;;;3.83;1.50;;;;;;;11.28;87.50;99231.75;5014452;28;20618;-61
2022/11/18 08:33:49;;;;;;;5.47;1.97;;;;;;;11.26;87.47;99231.91;5008650;28;20303;-61
2022/11/18 08:36:18;;;;;;;5.13;1.50;;;;;;;11.22;87.56;99232.47;5013443;28;20302;-60
2022/11/18 08:38:48;;;;;;;3.57;1.70;;;;;;;11.15;88.15;99234.22;5015751;28;20220;-61
2022/11/18 08:41:19;;;;;;;2.97;1.30;;;;;;;11.09;88.60;99234.94;5010474;28;20264;-61
2022/11/18 08:43:46;;;;;;;5.20;1.23;;;;;;;11.13;88.65;99247.66;5010899;28;20218;-61
2022/11/18 08:46:14;;;;;;;4.33;1.60;;;;;;;11.20;88.22;99242.44;5013552;28;20860;-61
2022/11/18 08:48:42;;;;;;;3.43;1.20;;;;;;;11.22;87.91;99240.44;5011377;28;20243;-62
2022/11/18 08:51:11;;;;;;;4.70;1.53;;;;;;;11.25;87.26;99242.75;5009837;28;20650;-61
2022/11/18 08:53:39;;;;;;;1.80;0.83;;;;;;;11.19;87.65;99249.59;5011564;28;20234;-61
2022/11/18 08:56:14;;;;;;;2.97;1.07;;;;;;;11.29;87.04;99254.63;5016664;28;20219;-61
2022/11/18 08:58:43;;;;;;;4.47;1.10;;;;;;;11.35;87.13;99250.41;5011398;28;20241;-61
2022/11/18 09:01:11;;;;;;;3.43;1.00;;;;;;;11.37;87.27;99256.38;5011073;28;20211;-61
2022/11/18 09:03:39;;;;;;;2.33;0.97;;;;;;;11.39;87.25;99255.19;5013903;28;20753;-62
2022/11/18 09:06:08;;;;;;;5.57;1.30;;;;;;;11.42;87.95;99259.31;5008245;28;20249;-61
2022/11/18 09:08:35;;;;;;;2.33;1.10;;;;;;;11.54;87.94;99263.97;5009715;28;20672;-61
2022/11/18 09:11:07;;;;;;;3.10;1.23;;;;;;;11.68;85.62;99254.38;5011833;28;20327;-61
2022/11/18 09:13:36;;;;;;;5.23;1.60;;;;;;;11.80;84.89;99254.72;5012945;28;20210;-61
2022/11/18 09:16:24;;;;;;;3.53;1.30;;;;;;;11.80;85.02;99252.91;5007696;28;20223;-61
2022/11/18 09:18:56;;;;;;;2.37;1.30;;;;;;;11.85;84.75;99262.97;5005816;28;20229;-61
2022/11/18 09:21:25;;;;;;;3.00;1.37;;;;;;;11.95;85.49;99260.88;5017370;28;20211;-60
2022/11/18 09:23:53;;;;;;;6.57;1.80;;;;;;;12.00;85.12;99264.59;5014428;28;20211;-61
2022/11/18 09:26:23;;;;;;;6.70;1.53;;;;;;;12.13;84.01;99265.78;5010139;28;20668;-61
2022/11/18 09:28:54;;;;;;;4.80;1.77;;;;;;;12.20;82.96;99259.53;5010559;28;20205;-62
2022/11/18 09:31:22;;;;;;;4.80;1.60;;;;;;;12.22;82.23;99267.31;5013504;28;20307;-62
2022/11/18 09:33:50;;;;;;;5.27;1.93;;;;;;;12.23;82.51;99269.75;5012660;28;20209;-62
2022/11/18 09:36:20;;;;;;;8.90;2.60;;;;;;;12.23;82.45;99272.41;5004872;28;20208;-61
2022/11/18 09:38:47;;;;;;;5.23;1.97;;;;;;;12.27;82.53;99273.69;5001966;28;20210;-62
2022/11/18 09:41:44;;;;;;;5.73;2.30;;;;;;;12.28;83.11;99280.66;5014748;28;20644;-63
2022/11/18 09:44:31;;;;;;;6.50;2.20;;;;;;;12.29;82.65;99282.31;5009597;28;20201;-62
2022/11/18 09:47:12;;;;;;;5.03;2.60;;;;;;;12.35;82.59;99286.88;5008206;28;20214;-62
2022/11/18 09:49:43;;;;;;;4.87;2.37;;;;;;;12.37;83.03;99282.19;5010155;28;20773;-62
2022/11/18 09:52:18;;;;;;;7.07;3.03;;;;;;;12.41;82.78;99294.09;5018822;28;20702;-63
2022/11/18 09:54:46;;;;;;;6.90;2.30;;;;;;;12.41;83.24;99288.75;5016424;28;20213;-63
2022/11/18 09:57:16;;;;;;;9.53;3.07;;;;;;;12.46;83.28;99295.38;5017481;28;20272;-62
2022/11/18 09:59:48;;;;;;;9.67;3.17;;;;;;;12.50;82.58;99293.97;5011770;28;20206;-62
2022/11/18 10:02:33;;;;;;;8.03;3.00;;;;;;;12.55;82.84;99294.25;5009866;28;20213;-62
2022/11/18 10:05:14;;;;;;;5.10;2.93;;;;;;;12.56;82.70;99309.19;5009324;28;20212;-64
2022/11/18 10:07:48;;;;;;;6.97;2.70;;;;;;;12.61;82.47;99299.63;5017327;28;20206;-61
2022/11/18 10:10:22;;;;;;;8.80;3.87;;;;;;;12.67;82.82;99303.34;5012382;28;20232;-61
2022/11/18 10:12:55;;;;;;;6.33;2.90;;;;;;;12.71;82.50;99312.59;5017137;28;20213;-62
2022/11/18 10:15:32;;;;;;;9.33;3.60;;;;;;;12.80;81.99;99314.13;5022601;28;20213;-61
2022/11/18 10:18:16;;;;;;;5.93;3.13;;;;;;;12.83;81.15;99316.41;5016122;28;20533;-62
2022/11/18 10:21:15;;;;;;;5.53;2.80;;;;;;;12.88;80.88;99319.31;5022072;28;20658;-62
2022/11/18 10:23:51;;;;;;;6.60;3.47;;;;;;;12.96;80.90;99321.84;5017752;28;20223;-61
2022/11/18 10:26:34;;;;;;;5.30;2.83;;;;;;;12.88;80.83;99327.28;5025260;28;20201;-61
2022/11/18 10:29:02;;;;;;;5.60;2.90;;;;;;;12.81;81.73;99323.75;5014384;28;20693;-63
2022/11/18 10:31:31;;;;;;;5.17;2.87;;;;;;;12.80;81.89;99324.75;5018681;28;20256;-62
2022/11/18 10:34:00;;;;;;;9.17;3.40;;;;;;;12.75;82.81;99321.84;5022304;28;20658;-62
2022/11/18 10:36:32;;;;;;;6.43;3.30;;;;;;;12.74;83.21;99326.34;5022148;28;20212;-62
2022/11/18 10:39:11;;;;;;;6.03;3.17;;;;;;;12.81;83.40;99329.06;5012417;28;20233;-62
2022/11/18 10:41:43;;;;;;;8.90;2.93;;;;;;;12.82;83.35;99328.88;5012558;28;20206;-62
2022/11/18 10:44:28;;;;;;;8.50;3.30;;;;;;;12.93;82.50;99332.84;5013786;28;20217;-62
2022/11/18 10:47:15;;;;;;;5.63;2.47;;;;;;;12.99;81.79;99334.78;5012775;28;20231;-62
2022/11/18 10:49:43;;;;;;;7.07;2.70;;;;;;;12.96;81.17;99332.47;5006437;28;20229;-60
2022/11/18 10:52:13;;;;;;;6.57;2.70;;;;;;;13.01;80.41;99334.59;5012826;28;20211;-60
2022/11/18 10:54:42;;;;;;;5.27;2.83;;;;;;;13.01;80.77;99335.41;5013775;28;20201;-61
2022/11/18 10:57:17;;;;;;;5.97;2.87;;;;;;;13.03;81.17;99344.00;5007781;28;20202;-61
2022/11/18 10:59:51;;;;;;;9.80;2.87;;;;;;;13.06;81.37;99338.31;5014438;28;20560;-59
2022/11/18 11:02:29;;;;;;;4.23;2.20;;;;;;;13.09;81.50;99329.13;5013291;28;20214;-60
2022/11/18 11:04:59;;;;;;;4.77;2.30;;;;;;;13.12;80.92;99323.41;5013065;28;20682;-60
2022/11/18 11:07:30;;;;;;;5.93;3.00;;;;;;;13.13;81.08;99331.22;5012152;28;20294;-61
2022/11/18 11:10:00;;;;;;;8.33;3.43;;;;;;;13.18;80.98;99331.50;5013485;28;20236;-60
2022/11/18 11:12:32;;;;;;;8.17;3.33;;;;;;;13.19;81.15;99325.13;5010711;28;20244;-61
2022/11/18 11:15:03;;;;;;;6.43;3.07;;;;;;;13.27;81.43;99321.53;5009813;28;20229;-61
2022/11/18 11:17:36;;;;;;;5.83;2.30;;;;;;;13.32;80.48;99323.59;5008598;28;20206;-61
2022/11/18 11:20:11;;;;;;;4.00;2.00;;;;;;;13.38;79.75;99328.13;5016600;28;20817;-61
2022/11/18 11:22:38;;;;;;;3.90;2.07;;;;;;;13.42;78.95;99319.59;5009947;28;20201;-61
2022/11/18 11:25:12;;;;;;;6.03;1.80;;;;;;;13.41;79.29;99327.75;5015553;28;20303;-61
2022/11/18 11:27:48;;;;;;;6.57;1.90;;;;;;;13.40;79.49;99326.13;5012004;28;20257;-61
2022/11/18 11:30:39;;;;;;;4.43;2.30;;;;;;;13.39;80.07;99327.94;5011461;28;20229;-60
2022/11/18 11:33:37;;;;;;;4.17;2.07;;;;;;;13.39;80.63;99335.94;5014276;28;20204;-61
2022/11/18 11:36:25;;;;;;;5.57;2.03;;;;;;;13.40;80.75;99334.94;5011492;28;20305;-61
2022/11/18 11:39:00;;;;;;;4.17;1.80;;;;;;;13.41;80.90;99343.75;5014270;28;20214;-61
2022/11/18 11:41:41;;;;;;;3.87;2.10;;;;;;;13.53;80.07;99339.53;5014928;28;20584;-60
2022/11/18 11:44:35;;;;;;;5.97;2.30;;;;;;;13.63;79.44;99337.38;5013711;28;20297;-61
2022/11/18 11:50:13;;;;;;;4.03;1.80;;;;;;;13.71;78.99;99339.03;5010379;28;20213;-61
2022/11/18 11:52:47;;;;;;;3.97;1.93;;;;;;;13.72;78.47;99344.16;5011252;28;20239;-61
2022/11/18 11:55:22;;;;;;;7.30;2.10;;;;;;;13.72;77.99;99340.69;5009742;28;20229;-61
2022/11/18 11:58:04;;;;;;;7.27;2.67;;;;;;;13.67;78.88;99335.94;5015122;28;20213;-60
2022/11/18 12:00:37;;;;;;;3.37;1.80;;;;;;;13.69;78.34;99335.75;5012564;28;20730;-61
2022/11/18 12:03:19;;;;;;;3.57;1.37;;;;;;;13.77;77.83;99340.91;5015845;28;21477;-61
2022/11/18 12:05:48;;;;;;;2.20;0.97;;;;;;;13.82;76.03;99336.63;5013843;28;20215;-61
2022/11/18 12:08:23;;;;;;;8.70;1.40;;;;;;;13.77;75.14;99341.75;5011607;28;20218;-62
2022/11/18 12:10:56;;;;;;;2.53;1.20;;;;;;;13.77;75.77;99348.91;5015612;28;20779;-61
2022/11/18 12:13:36;;;;;;;2.97;1.10;;;;;;;13.77;75.81;99340.91;5011933;28;20210;-61
2022/11/18 12:16:16;;;;;;;1.97;0.70;;;;;;;13.83;74.89;99348.94;5019456;28;20720;-60